BFIBOEING FLD/KING COUNTY INTL
METARs for airports near BFI, sorted by distance:
N 0 nm 21' KBFI 060453Z 17003KT 10SM BKN013 OVC018 07/06 A3016
SE 4 nm 32' KRNT 060453Z 19008KT 10SM BKN022 OVC045 08/06 A3015
S 4 nm 432' KSEA 060453Z 21010KT 10SM OVC011 07/04 A3015
W 18 nm 444' KPWT 060456Z 00000KT 10SM OVC006 06/06 A3016
SW 19 nm 294' KTIW 060453Z 22008KT 10SM BKN014 OVC024 07/04 A3016
N 22 nm 606' KPAE 060453Z 00000KT 10SM SCT036 OVC055 07/04 A3015
S 24 nm 322' KTCM 060455Z 23011KT 10SM BKN017 OVC041 07/06 A3016
S 25 nm 537' KPLU 290555Z 00000KT 10SM OVC038 05/05 A2978
S 29 nm 301' KGRF 060455Z 20008KT 10SM BKN020 06/03 A3016
N 38 nm 141' KAWO 060514Z 32007KT 10SM -RA FEW017 SCT028 BKN042 07/06 A3017
SW 38 nm 272' KSHN 060453Z 24011G20KT 10SM FEW012 06/04 A3015
SW 41 nm 207' KOLM 060454Z 24008KT 10SM SCT025 06/03 A3019
N 51 nm 47' KNUW 060453Z 27016G24KT 10SM BKN035 BKN060 08/06 A3017
N 56 nm 145' KBVS 060515Z 00000KT 10SM SCT013 BKN026 OVC065 07/07 A3015
NW 57 nm 13' KNOW 060510Z 29015KT 10SM OVC044 08/05 A3016
SW 58 nm 177' KCLS 060515Z 00000KT 10SM OVC035 07/06 A3025
NW 59 nm 291' KCLM 060453Z 29011KT 10SM BKN040 08/03 A3015
NW 66 nm 112' KFHR 060453Z 25004KT 10SM OVC040 07/05 A3013
SW 74 nm 17' KHQM 060453Z 30010KT 10SM FEW030 OVC040 08/04 A3024
N 74 nm 34' KORS 060515Z 17005KT 10SM OVC040 07/07 A3013
N 76 nm 171' KBLI 060453Z 19003KT 10SM SCT060 05/05 A3011
E 78 nm 1763' KELN 060453Z 31018KT 10SM CLR 06/01 A2999
NW 80 nm 64' CYYJ 060500Z 00000KT 20SM SCT042 BKN240 05/05 A3011
E 85 nm 1248' KEAT 060455Z 27006KT 10SM CLR 02/00 A2997
S 88 nm 20' KKLS 060518Z 26005KT 10SM BKN024 OVC033 07/04 A3030
SE 92 nm 1098' KYKM 060453Z 26003KT 5SM BR CLR 01/M01 A3003
W 94 nm 194' KUIL 060453Z 29004KT 10SM BKN025 OVC031 07/03 A3021
TAFs for airports near BFI, sorted by distance:
N 0 nm 21' KBFI KBFI 060254Z 0603/0624 VRB04KT P6SM VCSH BKN012 OVC020
  TEMPO 0603/0607 5SM -RA OVC012
  FM060700 18009KT P6SM OVC025
  FM062100 18012G18KT P6SM OVC015
S 4 nm 432' KSEA KSEA 060253Z 0603/0706 22008KT P6SM VCSH OVC012
  TEMPO 0603/0607 5SM -RA
  FM061200 19008KT P6SM OVC025
  FM062000 19012G19KT P6SM OVC019
W 18 nm 444' KPWT TAF
  AMD KPWT 060400Z 0604/0624 VRB04KT P6SM VCSH BKN007 OVC010
  FM061300 20004KT 6SM BR OVC007
  FM062000 20017G23KT P6SM OVC015
N 22 nm 606' KPAE TAF
  AMD KPAE 060344Z 0604/0624 31006KT P6SM VCSH SCT007 OVC020
  TEMPO 0604/0608 5SM -RA BKN007
  FM061500 17009KT P6SM OVC009
  FM062000 17014KT P6SM OVC015
S 24 nm 322' KTCM TAF TAF KTCM 060500Z 0605/0711 22010G15KT 9999 OVC015 QNH3015INS
  TEMPO 0605/0607 22012G22KT 510004
  BECMG 0611/0612 20012KT 9000 -SHRA BKN010 OVC015 610409 510102 QNH3035INS
  BECMG 0615/0616 18012G18KT 9999 NSW OVC015 620409 510102 QNH3038INS
  BECMG 0619/0620 21012G22KT 9000 -SHRA BKN015 OVC020 610409 510004 QNH3025INS
  BECMG 0704/0705 18010G15KT 6000 -RA BR OVC020 620609 510103 QNH3020INS
  BECMG 0709/0710 18012KT 9000 -SHRA OVC030 610609 520202 QNH3019INS TX09/0621Z TN05/0612Z
S 29 nm 301' KGRF TAF TAF KGRF 060500Z 0605/0711 22006KT 9999 SCT010 BKN020 QNH3015INS
  BECMG 0611/0612 20010KT 9999 -SHRA BKN010 OVC030 QNH3035INS
  BECMG 0621/0622 20012G18KT 9999 -SHRA BKN015 OVC030 520002 QNH3036INS TX08/0621Z TN05/0610Z
SW 41 nm 207' KOLM KOLM 052335Z 0600/0624 22006KT 4SM BR VCSH OVC020
  FM060300 25008KT 5SM BR OVC015
  FM061500 21008KT 3SM BR OVC007
  FM062100 20013G20KT 4SM BR OVC015
N 51 nm 47' KNUW TAF KNUW 0523/0623 26012G22KT 9999 VCSH SCT010 BKN039 BKN080 OVC120 630405 620909 QNH2985INS
  TEMPO 0523/0605 VRB06KT 9000 -RA BKN009 BKN030
  BECMG 0612/0614 16015G20KT 9999 VCSH SCT030 BKN110 630405 620909 QNH3012INS
  TEMPO 0614/0620 9000 -RA BKN025 T06/0613Z T09/0622Z FS30201
NW 59 nm 291' KCLM KCLM 052335Z 0600/0624 30010G20KT P6SM -RA BKN060
  FM061200 25007KT P6SM OVC025
SW 74 nm 17' KHQM KHQM 052335Z 0600/0624 28015G22KT P6SM VCSH BKN020 OVC040
  FM060200 26015G22KT P6SM OVC050
  FM060700 24007KT P6SM OVC025
  FM062200 18017G24KT 4SM BR OVC015
N 76 nm 171' KBLI KBLI 052335Z 0600/0624 19006KT P6SM -RA BKN035
  FM061000 19003KT P6SM OVC025
  FM061800 17010G16KT P6SM OVC015
E 85 nm 1248' KEAT TAF KEAT 052320Z 0600/0624 32006KT P6SM SCT025 BKN080
  FM061500 31005KT P6SM OVC080
  FM062100 25015G22KT P6SM BKN120
SE 92 nm 1098' KYKM TAF KYKM 060521Z 0606/0706 VRB05KT P6SM FEW100
  FM061400 31006KT P6SM BKN100
  FM070200 27005KT P6SM BKN100

Shortcut to this page: http://wxbay.com.

Data may contain errors.